sensor_id;sensor_type;location;lat;lon;timestamp;P1;durP1;ratioP1;P2;durP2;ratioP2
65271;SDS011;51868;48.812;8.198;2022-08-03T00:02:10;3.13;;;2.60;;
65271;SDS011;51868;48.812;8.198;2022-08-03T00:04:37;6.53;;;2.50;;
65271;SDS011;51868;48.812;8.198;2022-08-03T00:07:04;5.95;;;2.60;;
65271;SDS011;51868;48.812;8.198;2022-08-03T00:09:31;5.03;;;2.35;;
65271;SDS011;51868;48.812;8.198;2022-08-03T00:11:58;4.72;;;2.53;;
65271;SDS011;51868;48.812;8.198;2022-08-03T00:14:24;6.43;;;2.85;;
65271;SDS011;51868;48.812;8.198;2022-08-03T00:16:52;5.53;;;2.70;;
65271;SDS011;51868;48.812;8.198;2022-08-03T00:19:19;6.75;;;2.70;;
65271;SDS011;51868;48.812;8.198;2022-08-03T00:21:46;8.20;;;3.15;;
65271;SDS011;51868;48.812;8.198;2022-08-03T00:24:12;8.05;;;3.00;;
65271;SDS011;51868;48.812;8.198;2022-08-03T00:26:39;4.30;;;2.65;;
65271;SDS011;51868;48.812;8.198;2022-08-03T00:29:06;3.25;;;2.65;;
65271;SDS011;51868;48.812;8.198;2022-08-03T00:31:33;3.60;;;2.63;;
65271;SDS011;51868;48.812;8.198;2022-08-03T00:34:01;4.13;;;2.58;;
65271;SDS011;51868;48.812;8.198;2022-08-03T00:36:28;7.13;;;2.70;;
65271;SDS011;51868;48.812;8.198;2022-08-03T00:38:54;3.35;;;2.50;;
65271;SDS011;51868;48.812;8.198;2022-08-03T00:41:21;7.53;;;2.80;;
65271;SDS011;51868;48.812;8.198;2022-08-03T00:43:48;3.17;;;2.47;;
65271;SDS011;51868;48.812;8.198;2022-08-03T00:46:15;5.78;;;2.90;;
65271;SDS011;51868;48.812;8.198;2022-08-03T00:48:42;4.60;;;2.47;;
65271;SDS011;51868;48.812;8.198;2022-08-03T00:51:10;4.88;;;2.70;;
65271;SDS011;51868;48.812;8.198;2022-08-03T00:53:37;4.82;;;2.70;;
65271;SDS011;51868;48.812;8.198;2022-08-03T00:56:03;3.33;;;2.75;;
65271;SDS011;51868;48.812;8.198;2022-08-03T00:58:30;5.07;;;2.78;;
65271;SDS011;51868;48.812;8.198;2022-08-03T01:00:57;5.40;;;3.40;;
65271;SDS011;51868;48.812;8.198;2022-08-03T01:03:31;3.63;;;2.78;;
65271;SDS011;51868;48.812;8.198;2022-08-03T01:05:59;3.38;;;2.80;;
65271;SDS011;51868;48.812;8.198;2022-08-03T01:08:38;4.35;;;3.03;;
65271;SDS011;51868;48.812;8.198;2022-08-03T01:11:11;2.97;;;2.60;;
65271;SDS011;51868;48.812;8.198;2022-08-03T01:13:44;4.95;;;3.17;;
65271;SDS011;51868;48.812;8.198;2022-08-03T01:16:17;4.88;;;3.08;;
65271;SDS011;51868;48.812;8.198;2022-08-03T01:21:19;3.55;;;2.47;;
65271;SDS011;51868;48.812;8.198;2022-08-03T01:26:52;4.03;;;2.83;;
65271;SDS011;51868;48.812;8.198;2022-08-03T01:29:42;5.22;;;3.42;;
65271;SDS011;51868;48.812;8.198;2022-08-03T01:32:17;3.75;;;3.00;;
65271;SDS011;51868;48.812;8.198;2022-08-03T01:34:47;4.07;;;3.10;;
65271;SDS011;51868;48.812;8.198;2022-08-03T01:37:20;3.95;;;2.88;;
65271;SDS011;51868;48.812;8.198;2022-08-03T01:39:53;4.25;;;3.05;;
65271;SDS011;51868;48.812;8.198;2022-08-03T01:42:23;4.05;;;2.60;;
65271;SDS011;51868;48.812;8.198;2022-08-03T01:44:52;4.40;;;2.70;;
65271;SDS011;51868;48.812;8.198;2022-08-03T01:47:22;4.63;;;2.95;;
65271;SDS011;51868;48.812;8.198;2022-08-03T01:49:49;3.10;;;2.80;;
65271;SDS011;51868;48.812;8.198;2022-08-03T01:52:18;5.38;;;3.10;;
65271;SDS011;51868;48.812;8.198;2022-08-03T01:54:47;4.45;;;2.80;;
65271;SDS011;51868;48.812;8.198;2022-08-03T01:57:14;5.07;;;3.00;;
65271;SDS011;51868;48.812;8.198;2022-08-03T01:59:42;4.80;;;2.88;;
65271;SDS011;51868;48.812;8.198;2022-08-03T02:02:11;3.13;;;2.83;;
65271;SDS011;51868;48.812;8.198;2022-08-03T02:04:41;3.25;;;2.78;;
65271;SDS011;51868;48.812;8.198;2022-08-03T02:07:09;2.92;;;2.67;;
65271;SDS011;51868;48.812;8.198;2022-08-03T02:09:39;3.15;;;2.85;;
65271;SDS011;51868;48.812;8.198;2022-08-03T02:12:09;4.65;;;3.13;;
65271;SDS011;51868;48.812;8.198;2022-08-03T02:14:37;4.35;;;3.00;;
65271;SDS011;51868;48.812;8.198;2022-08-03T02:17:06;4.63;;;3.33;;
65271;SDS011;51868;48.812;8.198;2022-08-03T02:19:35;4.03;;;3.00;;
65271;SDS011;51868;48.812;8.198;2022-08-03T02:22:02;5.35;;;2.80;;
65271;SDS011;51868;48.812;8.198;2022-08-03T02:24:30;5.60;;;2.90;;
65271;SDS011;51868;48.812;8.198;2022-08-03T02:26:58;4.45;;;2.80;;
65271;SDS011;51868;48.812;8.198;2022-08-03T02:29:27;5.10;;;2.90;;
65271;SDS011;51868;48.812;8.198;2022-08-03T02:31:57;5.03;;;3.42;;
65271;SDS011;51868;48.812;8.198;2022-08-03T02:34:28;5.25;;;3.00;;
65271;SDS011;51868;48.812;8.198;2022-08-03T02:37:00;3.10;;;2.80;;
65271;SDS011;51868;48.812;8.198;2022-08-03T02:39:29;5.63;;;3.10;;
65271;SDS011;51868;48.812;8.198;2022-08-03T02:41:58;15.20;;;3.83;;
65271;SDS011;51868;48.812;8.198;2022-08-03T02:44:28;5.65;;;3.00;;
65271;SDS011;51868;48.812;8.198;2022-08-03T02:46:57;6.30;;;2.80;;
65271;SDS011;51868;48.812;8.198;2022-08-03T02:49:27;5.97;;;3.00;;
65271;SDS011;51868;48.812;8.198;2022-08-03T02:51:55;5.20;;;2.60;;
65271;SDS011;51868;48.812;8.198;2022-08-03T02:54:25;3.15;;;2.63;;
65271;SDS011;51868;48.812;8.198;2022-08-03T02:56:53;3.90;;;2.92;;
65271;SDS011;51868;48.812;8.198;2022-08-03T02:59:21;6.15;;;3.10;;
65271;SDS011;51868;48.812;8.198;2022-08-03T03:01:49;6.93;;;3.00;;
65271;SDS011;51868;48.812;8.198;2022-08-03T03:04:18;3.28;;;2.97;;
65271;SDS011;51868;48.812;8.198;2022-08-03T03:06:46;3.35;;;2.88;;
65271;SDS011;51868;48.812;8.198;2022-08-03T03:09:15;3.05;;;2.67;;
65271;SDS011;51868;48.812;8.198;2022-08-03T03:11:44;3.83;;;2.72;;
65271;SDS011;51868;48.812;8.198;2022-08-03T03:14:11;3.22;;;2.72;;
65271;SDS011;51868;48.812;8.198;2022-08-03T03:16:40;3.05;;;2.63;;
65271;SDS011;51868;48.812;8.198;2022-08-03T03:19:08;3.92;;;3.20;;
65271;SDS011;51868;48.812;8.198;2022-08-03T03:21:36;3.63;;;2.97;;
65271;SDS011;51868;48.812;8.198;2022-08-03T03:24:03;3.72;;;3.20;;
65271;SDS011;51868;48.812;8.198;2022-08-03T03:26:33;4.38;;;2.97;;
65271;SDS011;51868;48.812;8.198;2022-08-03T03:29:02;3.70;;;3.28;;
65271;SDS011;51868;48.812;8.198;2022-08-03T03:31:29;5.95;;;3.20;;
65271;SDS011;51868;48.812;8.198;2022-08-03T03:33:56;3.47;;;2.80;;
65271;SDS011;51868;48.812;8.198;2022-08-03T03:36:23;3.50;;;2.70;;
65271;SDS011;51868;48.812;8.198;2022-08-03T03:38:50;5.03;;;2.78;;
65271;SDS011;51868;48.812;8.198;2022-08-03T03:41:17;3.60;;;2.95;;
65271;SDS011;51868;48.812;8.198;2022-08-03T03:43:45;5.82;;;2.97;;
65271;SDS011;51868;48.812;8.198;2022-08-03T03:46:14;3.95;;;2.95;;
65271;SDS011;51868;48.812;8.198;2022-08-03T03:48:41;6.82;;;3.05;;
65271;SDS011;51868;48.812;8.198;2022-08-03T03:51:07;2.60;;;2.40;;
65271;SDS011;51868;48.812;8.198;2022-08-03T03:53:35;3.25;;;2.78;;
65271;SDS011;51868;48.812;8.198;2022-08-03T03:56:02;3.92;;;2.70;;
65271;SDS011;51868;48.812;8.198;2022-08-03T03:58:29;3.60;;;3.30;;
65271;SDS011;51868;48.812;8.198;2022-08-03T04:00:56;6.28;;;2.40;;
65271;SDS011;51868;48.812;8.198;2022-08-03T04:03:24;4.90;;;3.17;;
65271;SDS011;51868;48.812;8.198;2022-08-03T04:05:51;3.17;;;2.88;;
65271;SDS011;51868;48.812;8.198;2022-08-03T04:08:35;3.55;;;2.78;;
65271;SDS011;51868;48.812;8.198;2022-08-03T04:11:19;3.67;;;3.30;;
65271;SDS011;51868;48.812;8.198;2022-08-03T04:13:49;3.67;;;2.88;;
65271;SDS011;51868;48.812;8.198;2022-08-03T04:16:19;4.03;;;2.85;;
65271;SDS011;51868;48.812;8.198;2022-08-03T04:18:51;4.55;;;3.13;;
65271;SDS011;51868;48.812;8.198;2022-08-03T04:21:20;4.20;;;3.35;;
65271;SDS011;51868;48.812;8.198;2022-08-03T04:23:48;4.32;;;3.42;;
65271;SDS011;51868;48.812;8.198;2022-08-03T04:26:19;3.35;;;3.05;;
65271;SDS011;51868;48.812;8.198;2022-08-03T04:28:47;5.15;;;3.47;;
65271;SDS011;51868;48.812;8.198;2022-08-03T04:31:16;3.97;;;2.90;;
65271;SDS011;51868;48.812;8.198;2022-08-03T04:33:46;4.18;;;3.10;;
65271;SDS011;51868;48.812;8.198;2022-08-03T04:36:18;6.72;;;3.13;;
65271;SDS011;51868;48.812;8.198;2022-08-03T04:38:52;3.42;;;2.90;;
65271;SDS011;51868;48.812;8.198;2022-08-03T04:41:21;5.22;;;3.15;;
65271;SDS011;51868;48.812;8.198;2022-08-03T04:43:50;4.10;;;3.70;;
65271;SDS011;51868;48.812;8.198;2022-08-03T04:46:21;4.25;;;3.35;;
65271;SDS011;51868;48.812;8.198;2022-08-03T04:48:48;4.80;;;3.63;;
65271;SDS011;51868;48.812;8.198;2022-08-03T04:51:17;3.50;;;3.20;;
65271;SDS011;51868;48.812;8.198;2022-08-03T04:53:44;6.65;;;3.28;;
65271;SDS011;51868;48.812;8.198;2022-08-03T04:56:10;5.05;;;3.47;;
65271;SDS011;51868;48.812;8.198;2022-08-03T04:58:37;9.35;;;3.53;;
65271;SDS011;51868;48.812;8.198;2022-08-03T05:01:04;6.43;;;3.42;;
65271;SDS011;51868;48.812;8.198;2022-08-03T05:03:31;3.95;;;3.33;;
65271;SDS011;51868;48.812;8.198;2022-08-03T05:05:58;5.05;;;3.50;;
65271;SDS011;51868;48.812;8.198;2022-08-03T05:08:28;6.15;;;3.10;;
65271;SDS011;51868;48.812;8.198;2022-08-03T05:10:55;9.98;;;3.55;;
65271;SDS011;51868;48.812;8.198;2022-08-03T05:13:22;5.45;;;3.88;;
65271;SDS011;51868;48.812;8.198;2022-08-03T05:15:49;6.82;;;4.00;;
65271;SDS011;51868;48.812;8.198;2022-08-03T05:18:15;4.75;;;4.03;;
65271;SDS011;51868;48.812;8.198;2022-08-03T05:20:42;5.90;;;3.58;;
65271;SDS011;51868;48.812;8.198;2022-08-03T05:23:09;7.88;;;3.70;;
65271;SDS011;51868;48.812;8.198;2022-08-03T05:25:37;8.13;;;3.60;;
65271;SDS011;51868;48.812;8.198;2022-08-03T05:28:03;5.72;;;3.50;;
65271;SDS011;51868;48.812;8.198;2022-08-03T05:30:30;8.52;;;3.60;;
65271;SDS011;51868;48.812;8.198;2022-08-03T05:32:57;5.53;;;3.40;;
65271;SDS011;51868;48.812;8.198;2022-08-03T05:35:24;8.82;;;3.50;;
65271;SDS011;51868;48.812;8.198;2022-08-03T05:37:51;3.63;;;2.95;;
65271;SDS011;51868;48.812;8.198;2022-08-03T05:40:21;7.28;;;3.92;;
65271;SDS011;51868;48.812;8.198;2022-08-03T05:42:49;6.25;;;3.70;;
65271;SDS011;51868;48.812;8.198;2022-08-03T05:45:20;4.28;;;3.80;;
65271;SDS011;51868;48.812;8.198;2022-08-03T05:47:47;3.83;;;3.47;;
65271;SDS011;51868;48.812;8.198;2022-08-03T05:50:15;6.97;;;3.53;;
65271;SDS011;51868;48.812;8.198;2022-08-03T05:52:42;10.35;;;3.72;;
65271;SDS011;51868;48.812;8.198;2022-08-03T05:55:09;10.02;;;4.15;;
65271;SDS011;51868;48.812;8.198;2022-08-03T05:57:40;7.13;;;4.07;;
65271;SDS011;51868;48.812;8.198;2022-08-03T06:00:09;6.00;;;4.40;;
65271;SDS011;51868;48.812;8.198;2022-08-03T06:02:40;8.02;;;4.40;;
65271;SDS011;51868;48.812;8.198;2022-08-03T06:05:07;7.85;;;4.30;;
65271;SDS011;51868;48.812;8.198;2022-08-03T06:07:35;6.72;;;4.03;;
65271;SDS011;51868;48.812;8.198;2022-08-03T06:10:04;7.55;;;4.53;;
65271;SDS011;51868;48.812;8.198;2022-08-03T06:12:32;4.82;;;4.22;;
65271;SDS011;51868;48.812;8.198;2022-08-03T06:17:33;6.38;;;4.97;;
65271;SDS011;51868;48.812;8.198;2022-08-03T06:20:00;8.35;;;4.43;;
65271;SDS011;51868;48.812;8.198;2022-08-03T06:22:26;5.90;;;4.55;;
65271;SDS011;51868;48.812;8.198;2022-08-03T06:24:53;6.05;;;4.22;;
65271;SDS011;51868;48.812;8.198;2022-08-03T06:27:22;4.45;;;4.00;;
65271;SDS011;51868;48.812;8.198;2022-08-03T06:29:49;4.88;;;4.25;;
65271;SDS011;51868;48.812;8.198;2022-08-03T06:32:16;7.05;;;4.22;;
65271;SDS011;51868;48.812;8.198;2022-08-03T06:34:48;7.45;;;4.10;;
65271;SDS011;51868;48.812;8.198;2022-08-03T06:37:15;9.55;;;4.32;;
65271;SDS011;51868;48.812;8.198;2022-08-03T06:39:42;4.80;;;4.05;;
65271;SDS011;51868;48.812;8.198;2022-08-03T06:42:12;8.07;;;4.20;;
65271;SDS011;51868;48.812;8.198;2022-08-03T06:44:38;6.70;;;4.03;;
65271;SDS011;51868;48.812;8.198;2022-08-03T06:47:05;7.85;;;4.22;;
65271;SDS011;51868;48.812;8.198;2022-08-03T06:49:32;6.57;;;4.13;;
65271;SDS011;51868;48.812;8.198;2022-08-03T06:52:00;3.75;;;3.45;;
65271;SDS011;51868;48.812;8.198;2022-08-03T06:54:26;8.25;;;4.40;;
65271;SDS011;51868;48.812;8.198;2022-08-03T06:56:53;4.97;;;4.20;;
65271;SDS011;51868;48.812;8.198;2022-08-03T06:59:20;7.85;;;4.60;;
65271;SDS011;51868;48.812;8.198;2022-08-03T07:01:53;4.22;;;3.80;;
65271;SDS011;51868;48.812;8.198;2022-08-03T07:04:20;9.98;;;4.03;;
65271;SDS011;51868;48.812;8.198;2022-08-03T07:06:49;5.72;;;3.47;;
65271;SDS011;51868;48.812;8.198;2022-08-03T07:09:18;5.63;;;4.40;;
65271;SDS011;51868;48.812;8.198;2022-08-03T07:11:44;6.00;;;3.70;;
65271;SDS011;51868;48.812;8.198;2022-08-03T07:14:11;6.05;;;4.20;;
65271;SDS011;51868;48.812;8.198;2022-08-03T07:16:38;4.13;;;3.63;;
65271;SDS011;51868;48.812;8.198;2022-08-03T07:19:04;6.18;;;4.07;;
65271;SDS011;51868;48.812;8.198;2022-08-03T07:21:31;6.00;;;4.00;;
65271;SDS011;51868;48.812;8.198;2022-08-03T07:23:58;4.47;;;3.80;;
65271;SDS011;51868;48.812;8.198;2022-08-03T07:26:26;5.90;;;4.00;;
65271;SDS011;51868;48.812;8.198;2022-08-03T07:28:55;5.97;;;4.35;;
65271;SDS011;51868;48.812;8.198;2022-08-03T07:31:22;4.40;;;3.60;;
65271;SDS011;51868;48.812;8.198;2022-08-03T07:33:48;6.03;;;3.67;;
65271;SDS011;51868;48.812;8.198;2022-08-03T07:36:15;6.28;;;4.00;;
65271;SDS011;51868;48.812;8.198;2022-08-03T07:38:42;4.45;;;3.95;;
65271;SDS011;51868;48.812;8.198;2022-08-03T07:41:08;6.40;;;3.63;;
65271;SDS011;51868;48.812;8.198;2022-08-03T07:43:36;4.82;;;3.90;;
65271;SDS011;51868;48.812;8.198;2022-08-03T07:46:03;5.80;;;4.05;;
65271;SDS011;51868;48.812;8.198;2022-08-03T07:48:30;5.82;;;3.63;;
65271;SDS011;51868;48.812;8.198;2022-08-03T07:50:56;6.60;;;3.92;;
65271;SDS011;51868;48.812;8.198;2022-08-03T07:53:23;4.60;;;4.00;;
65271;SDS011;51868;48.812;8.198;2022-08-03T07:55:50;5.75;;;3.88;;
65271;SDS011;51868;48.812;8.198;2022-08-03T07:58:16;5.65;;;3.70;;
65271;SDS011;51868;48.812;8.198;2022-08-03T08:00:44;4.72;;;3.88;;
65271;SDS011;51868;48.812;8.198;2022-08-03T08:03:11;10.32;;;3.70;;
65271;SDS011;51868;48.812;8.198;2022-08-03T08:05:41;14.98;;;4.05;;
65271;SDS011;51868;48.812;8.198;2022-08-03T08:08:08;17.00;;;4.18;;
65271;SDS011;51868;48.812;8.198;2022-08-03T08:10:38;10.98;;;4.05;;
65271;SDS011;51868;48.812;8.198;2022-08-03T08:13:05;4.40;;;3.70;;
65271;SDS011;51868;48.812;8.198;2022-08-03T08:15:32;4.80;;;3.97;;
65271;SDS011;51868;48.812;8.198;2022-08-03T08:18:01;4.68;;;3.60;;
65271;SDS011;51868;48.812;8.198;2022-08-03T08:20:29;4.15;;;3.65;;
65271;SDS011;51868;48.812;8.198;2022-08-03T08:23:02;9.73;;;3.83;;
65271;SDS011;51868;48.812;8.198;2022-08-03T08:25:30;5.47;;;3.78;;
65271;SDS011;51868;48.812;8.198;2022-08-03T08:27:58;5.93;;;3.30;;
65271;SDS011;51868;48.812;8.198;2022-08-03T08:30:27;17.50;;;4.00;;
65271;SDS011;51868;48.812;8.198;2022-08-03T08:32:56;9.20;;;3.58;;
65271;SDS011;51868;48.812;8.198;2022-08-03T08:35:24;6.32;;;4.07;;
65271;SDS011;51868;48.812;8.198;2022-08-03T08:37:51;6.30;;;3.47;;
65271;SDS011;51868;48.812;8.198;2022-08-03T08:40:19;10.23;;;3.25;;
65271;SDS011;51868;48.812;8.198;2022-08-03T08:42:47;6.38;;;3.85;;
65271;SDS011;51868;48.812;8.198;2022-08-03T08:45:15;9.52;;;4.00;;
65271;SDS011;51868;48.812;8.198;2022-08-03T08:47:44;6.32;;;3.67;;
65271;SDS011;51868;48.812;8.198;2022-08-03T08:50:16;10.48;;;3.55;;
65271;SDS011;51868;48.812;8.198;2022-08-03T08:52:48;7.65;;;3.60;;
65271;SDS011;51868;48.812;8.198;2022-08-03T08:55:18;11.32;;;3.90;;
65271;SDS011;51868;48.812;8.198;2022-08-03T08:57:47;9.13;;;4.40;;
65271;SDS011;51868;48.812;8.198;2022-08-03T09:00:16;8.23;;;3.88;;
65271;SDS011;51868;48.812;8.198;2022-08-03T09:02:43;7.63;;;3.83;;
65271;SDS011;51868;48.812;8.198;2022-08-03T09:05:11;5.45;;;3.90;;
65271;SDS011;51868;48.812;8.198;2022-08-03T09:07:38;8.25;;;3.58;;
65271;SDS011;51868;48.812;8.198;2022-08-03T09:10:07;9.35;;;3.75;;
65271;SDS011;51868;48.812;8.198;2022-08-03T09:12:38;7.70;;;3.63;;
65271;SDS011;51868;48.812;8.198;2022-08-03T09:15:18;5.40;;;3.70;;
65271;SDS011;51868;48.812;8.198;2022-08-03T09:17:46;8.77;;;3.33;;
65271;SDS011;51868;48.812;8.198;2022-08-03T09:20:14;5.47;;;3.45;;
65271;SDS011;51868;48.812;8.198;2022-08-03T09:22:51;4.75;;;3.70;;
65271;SDS011;51868;48.812;8.198;2022-08-03T09:25:26;9.13;;;3.67;;
65271;SDS011;51868;48.812;8.198;2022-08-03T09:27:54;6.80;;;3.50;;
65271;SDS011;51868;48.812;8.198;2022-08-03T09:30:31;7.93;;;3.42;;
65271;SDS011;51868;48.812;8.198;2022-08-03T09:32:59;5.90;;;3.53;;
65271;SDS011;51868;48.812;8.198;2022-08-03T09:35:26;4.35;;;3.22;;
65271;SDS011;51868;48.812;8.198;2022-08-03T09:38:09;5.13;;;3.50;;
65271;SDS011;51868;48.812;8.198;2022-08-03T09:40:38;10.70;;;3.55;;
65271;SDS011;51868;48.812;8.198;2022-08-03T09:43:05;7.45;;;3.75;;
65271;SDS011;51868;48.812;8.198;2022-08-03T09:45:33;6.47;;;3.47;;
65271;SDS011;51868;48.812;8.198;2022-08-03T09:48:19;6.18;;;3.03;;
65271;SDS011;51868;48.812;8.198;2022-08-03T09:50:47;5.85;;;3.20;;
65271;SDS011;51868;48.812;8.198;2022-08-03T09:53:14;4.97;;;3.55;;
65271;SDS011;51868;48.812;8.198;2022-08-03T09:56:05;9.05;;;3.00;;
65271;SDS011;51868;48.812;8.198;2022-08-03T09:58:32;4.60;;;2.85;;
65271;SDS011;51868;48.812;8.198;2022-08-03T10:01:09;5.65;;;2.88;;
65271;SDS011;51868;48.812;8.198;2022-08-03T10:03:37;9.57;;;2.63;;
65271;SDS011;51868;48.812;8.198;2022-08-03T10:09:03;7.15;;;3.25;;
65271;SDS011;51868;48.812;8.198;2022-08-03T10:11:33;6.10;;;2.53;;
65271;SDS011;51868;48.812;8.198;2022-08-03T10:14:01;3.78;;;2.90;;
65271;SDS011;51868;48.812;8.198;2022-08-03T10:16:30;4.80;;;2.50;;
65271;SDS011;51868;48.812;8.198;2022-08-03T10:19:01;2.30;;;2.10;;
65271;SDS011;51868;48.812;8.198;2022-08-03T10:23:59;5.90;;;2.65;;
65271;SDS011;51868;48.812;8.198;2022-08-03T10:26:29;6.60;;;2.72;;
65271;SDS011;51868;48.812;8.198;2022-08-03T10:28:59;3.75;;;2.40;;
65271;SDS011;51868;48.812;8.198;2022-08-03T10:31:30;4.93;;;2.80;;
65271;SDS011;51868;48.812;8.198;2022-08-03T10:34:05;4.05;;;2.40;;
65271;SDS011;51868;48.812;8.198;2022-08-03T10:36:37;2.40;;;1.95;;
65271;SDS011;51868;48.812;8.198;2022-08-03T10:39:07;3.70;;;2.60;;
65271;SDS011;51868;48.812;8.198;2022-08-03T10:41:37;3.50;;;2.00;;
65271;SDS011;51868;48.812;8.198;2022-08-03T10:44:10;4.20;;;2.63;;
65271;SDS011;51868;48.812;8.198;2022-08-03T10:46:40;3.85;;;2.45;;
65271;SDS011;51868;48.812;8.198;2022-08-03T10:49:12;5.13;;;2.70;;
65271;SDS011;51868;48.812;8.198;2022-08-03T10:51:45;4.97;;;2.63;;
65271;SDS011;51868;48.812;8.198;2022-08-03T11:00:11;2.92;;;2.67;;
65271;SDS011;51868;48.812;8.198;2022-08-03T11:06:13;6.18;;;2.53;;
65271;SDS011;51868;48.812;8.198;2022-08-03T11:08:43;4.00;;;2.67;;
65271;SDS011;51868;48.812;8.198;2022-08-03T11:11:23;5.55;;;2.75;;
65271;SDS011;51868;48.812;8.198;2022-08-03T11:13:56;4.30;;;2.55;;
65271;SDS011;51868;48.812;8.198;2022-08-03T11:16:26;4.50;;;2.55;;
65271;SDS011;51868;48.812;8.198;2022-08-03T11:18:59;3.60;;;2.53;;
65271;SDS011;51868;48.812;8.198;2022-08-03T11:27:29;4.93;;;2.22;;
65271;SDS011;51868;48.812;8.198;2022-08-03T11:29:58;5.25;;;2.00;;
65271;SDS011;51868;48.812;8.198;2022-08-03T11:35:24;2.50;;;2.03;;
65271;SDS011;51868;48.812;8.198;2022-08-03T11:38:06;2.35;;;2.00;;
65271;SDS011;51868;48.812;8.198;2022-08-03T11:40:41;3.25;;;2.15;;
65271;SDS011;51868;48.812;8.198;2022-08-03T11:46:13;4.88;;;1.88;;
65271;SDS011;51868;48.812;8.198;2022-08-03T11:48:45;3.28;;;2.03;;
65271;SDS011;51868;48.812;8.198;2022-08-03T11:51:23;3.58;;;2.10;;
65271;SDS011;51868;48.812;8.198;2022-08-03T11:53:53;2.55;;;2.35;;
65271;SDS011;51868;48.812;8.198;2022-08-03T11:56:20;2.30;;;2.10;;
65271;SDS011;51868;48.812;8.198;2022-08-03T11:58:51;6.35;;;2.50;;
65271;SDS011;51868;48.812;8.198;2022-08-03T12:01:24;3.00;;;2.33;;
65271;SDS011;51868;48.812;8.198;2022-08-03T12:03:52;6.03;;;2.55;;
65271;SDS011;51868;48.812;8.198;2022-08-03T12:06:19;3.83;;;2.10;;
65271;SDS011;51868;48.812;8.198;2022-08-03T12:08:48;2.25;;;1.95;;
65271;SDS011;51868;48.812;8.198;2022-08-03T12:11:17;2.63;;;2.30;;
65271;SDS011;51868;48.812;8.198;2022-08-03T12:13:44;3.03;;;1.92;;
65271;SDS011;51868;48.812;8.198;2022-08-03T12:16:16;5.22;;;2.42;;
65271;SDS011;51868;48.812;8.198;2022-08-03T12:18:44;3.20;;;2.35;;
65271;SDS011;51868;48.812;8.198;2022-08-03T12:21:13;3.95;;;2.10;;
65271;SDS011;51868;48.812;8.198;2022-08-03T12:23:42;5.28;;;2.28;;
65271;SDS011;51868;48.812;8.198;2022-08-03T12:26:17;4.65;;;2.25;;
65271;SDS011;51868;48.812;8.198;2022-08-03T12:28:48;2.60;;;2.10;;
65271;SDS011;51868;48.812;8.198;2022-08-03T12:31:17;2.88;;;1.75;;
65271;SDS011;51868;48.812;8.198;2022-08-03T12:33:59;4.97;;;2.00;;
65271;SDS011;51868;48.812;8.198;2022-08-03T12:38:57;2.85;;;2.00;;
65271;SDS011;51868;48.812;8.198;2022-08-03T12:41:31;2.67;;;2.30;;
65271;SDS011;51868;48.812;8.198;2022-08-03T12:44:10;2.67;;;2.03;;
65271;SDS011;51868;48.812;8.198;2022-08-03T12:46:39;4.30;;;2.10;;
65271;SDS011;51868;48.812;8.198;2022-08-03T12:49:09;3.13;;;1.70;;
65271;SDS011;51868;48.812;8.198;2022-08-03T12:51:54;2.13;;;1.88;;
65271;SDS011;51868;48.812;8.198;2022-08-03T12:54:22;4.95;;;2.13;;
65271;SDS011;51868;48.812;8.198;2022-08-03T12:57:00;2.13;;;2.00;;
65271;SDS011;51868;48.812;8.198;2022-08-03T12:59:29;3.47;;;2.05;;
65271;SDS011;51868;48.812;8.198;2022-08-03T13:01:56;4.00;;;2.15;;
65271;SDS011;51868;48.812;8.198;2022-08-03T13:04:27;3.92;;;1.88;;
65271;SDS011;51868;48.812;8.198;2022-08-03T13:06:58;2.58;;;2.13;;
65271;SDS011;51868;48.812;8.198;2022-08-03T13:09:26;3.23;;;2.00;;
65271;SDS011;51868;48.812;8.198;2022-08-03T13:12:06;2.00;;;1.90;;
65271;SDS011;51868;48.812;8.198;2022-08-03T13:14:35;4.35;;;2.38;;
65271;SDS011;51868;48.812;8.198;2022-08-03T13:17:03;3.65;;;2.33;;
65271;SDS011;51868;48.812;8.198;2022-08-03T13:19:33;1.90;;;1.70;;
65271;SDS011;51868;48.812;8.198;2022-08-03T13:22:11;3.10;;;2.20;;
65271;SDS011;51868;48.812;8.198;2022-08-03T13:24:38;2.38;;;2.17;;
65271;SDS011;51868;48.812;8.198;2022-08-03T13:27:05;2.20;;;2.00;;
65271;SDS011;51868;48.812;8.198;2022-08-03T13:29:32;6.35;;;2.00;;
65271;SDS011;51868;48.812;8.198;2022-08-03T13:31:59;5.03;;;2.28;;
65271;SDS011;51868;48.812;8.198;2022-08-03T13:34:26;3.28;;;2.22;;
65271;SDS011;51868;48.812;8.198;2022-08-03T13:36:53;2.30;;;2.10;;
65271;SDS011;51868;48.812;8.198;2022-08-03T13:39:23;1.92;;;1.73;;
65271;SDS011;51868;48.812;8.198;2022-08-03T13:41:51;2.33;;;2.13;;
65271;SDS011;51868;48.812;8.198;2022-08-03T13:44:18;3.03;;;2.30;;
65271;SDS011;51868;48.812;8.198;2022-08-03T13:46:47;2.13;;;1.92;;
65271;SDS011;51868;48.812;8.198;2022-08-03T13:49:16;2.45;;;2.03;;
65271;SDS011;51868;48.812;8.198;2022-08-03T13:51:46;3.40;;;1.83;;
65271;SDS011;51868;48.812;8.198;2022-08-03T13:54:13;2.30;;;2.08;;
65271;SDS011;51868;48.812;8.198;2022-08-03T13:56:41;2.13;;;1.85;;
65271;SDS011;51868;48.812;8.198;2022-08-03T13:59:31;5.45;;;1.90;;
65271;SDS011;51868;48.812;8.198;2022-08-03T14:01:58;2.97;;;2.15;;
65271;SDS011;51868;48.812;8.198;2022-08-03T14:04:53;4.68;;;2.28;;
65271;SDS011;51868;48.812;8.198;2022-08-03T14:07:25;5.63;;;2.28;;
65271;SDS011;51868;48.812;8.198;2022-08-03T14:09:52;6.07;;;2.20;;
65271;SDS011;51868;48.812;8.198;2022-08-03T14:12:22;5.57;;;2.38;;
65271;SDS011;51868;48.812;8.198;2022-08-03T14:14:49;4.03;;;2.30;;
65271;SDS011;51868;48.812;8.198;2022-08-03T14:17:16;2.92;;;2.20;;
65271;SDS011;51868;48.812;8.198;2022-08-03T14:19:48;5.43;;;2.28;;
65271;SDS011;51868;48.812;8.198;2022-08-03T14:22:15;2.90;;;2.28;;
65271;SDS011;51868;48.812;8.198;2022-08-03T14:24:44;2.97;;;1.90;;
65271;SDS011;51868;48.812;8.198;2022-08-03T14:27:11;5.18;;;2.10;;
65271;SDS011;51868;48.812;8.198;2022-08-03T14:29:40;2.80;;;2.22;;
65271;SDS011;51868;48.812;8.198;2022-08-03T14:32:07;4.05;;;2.10;;
65271;SDS011;51868;48.812;8.198;2022-08-03T14:34:34;5.15;;;2.50;;
65271;SDS011;51868;48.812;8.198;2022-08-03T14:37:02;5.30;;;2.30;;
65271;SDS011;51868;48.812;8.198;2022-08-03T14:39:31;3.22;;;2.28;;
65271;SDS011;51868;48.812;8.198;2022-08-03T14:41:58;2.97;;;2.30;;
65271;SDS011;51868;48.812;8.198;2022-08-03T14:44:27;3.40;;;2.25;;
65271;SDS011;51868;48.812;8.198;2022-08-03T14:46:55;3.33;;;1.98;;
65271;SDS011;51868;48.812;8.198;2022-08-03T14:49:22;2.35;;;2.00;;
65271;SDS011;51868;48.812;8.198;2022-08-03T14:51:48;5.70;;;2.30;;
65271;SDS011;51868;48.812;8.198;2022-08-03T14:54:15;3.97;;;2.10;;
65271;SDS011;51868;48.812;8.198;2022-08-03T14:56:46;3.08;;;2.00;;
65271;SDS011;51868;48.812;8.198;2022-08-03T14:59:13;4.63;;;2.08;;
65271;SDS011;51868;48.812;8.198;2022-08-03T15:01:43;5.47;;;2.33;;
65271;SDS011;51868;48.812;8.198;2022-08-03T15:04:15;2.40;;;2.17;;
65271;SDS011;51868;48.812;8.198;2022-08-03T15:06:42;3.75;;;2.75;;
65271;SDS011;51868;48.812;8.198;2022-08-03T15:09:12;2.30;;;2.10;;
65271;SDS011;51868;48.812;8.198;2022-08-03T15:11:39;3.83;;;2.08;;
65271;SDS011;51868;48.812;8.198;2022-08-03T15:14:07;3.15;;;2.33;;
65271;SDS011;51868;48.812;8.198;2022-08-03T15:16:38;6.53;;;2.47;;
65271;SDS011;51868;48.812;8.198;2022-08-03T15:19:06;2.50;;;2.30;;
65271;SDS011;51868;48.812;8.198;2022-08-03T15:21:35;4.55;;;2.20;;
65271;SDS011;51868;48.812;8.198;2022-08-03T15:24:03;2.38;;;2.17;;
65271;SDS011;51868;48.812;8.198;2022-08-03T15:26:34;2.47;;;1.95;;
65271;SDS011;51868;48.812;8.198;2022-08-03T15:29:01;3.97;;;2.53;;
65271;SDS011;51868;48.812;8.198;2022-08-03T15:31:30;2.38;;;2.05;;
65271;SDS011;51868;48.812;8.198;2022-08-03T15:33:57;2.40;;;2.20;;
65271;SDS011;51868;48.812;8.198;2022-08-03T15:36:24;3.17;;;2.00;;
65271;SDS011;51868;48.812;8.198;2022-08-03T15:38:56;2.38;;;2.17;;